createdAt,value
2016-11-15T00:00:10.527Z,1017.99
2016-11-15T00:01:10.532Z,1017.96
2016-11-15T00:02:10.581Z,1017.94
2016-11-15T00:03:10.578Z,1017.94
2016-11-15T00:04:10.579Z,1017.93
2016-11-15T00:05:10.461Z,1017.9
2016-11-15T00:06:10.577Z,1017.91
2016-11-15T00:07:10.891Z,1017.88
2016-11-15T00:08:10.699Z,1017.86
2016-11-15T00:09:10.682Z,1017.86
2016-11-15T00:10:11.042Z,1017.84
2016-11-15T00:11:10.682Z,1017.82
2016-11-15T00:12:10.689Z,1017.83
2016-11-15T00:13:10.943Z,1017.8
2016-11-15T00:14:10.663Z,1017.77
2016-11-15T00:15:11.061Z,1017.8
2016-11-15T00:16:10.804Z,1017.77
2016-11-15T00:17:11.074Z,1017.74
2016-11-15T00:18:10.920Z,1017.71
2016-11-15T00:19:10.944Z,1017.68
2016-11-15T00:20:10.939Z,1017.68
2016-11-15T00:21:11.311Z,1017.63
2016-11-15T00:22:11.996Z,1017.64
2016-11-15T00:23:11.067Z,1017.63
2016-11-15T00:24:10.927Z,1017.63
2016-11-15T00:25:10.947Z,1017.64
2016-11-15T00:26:10.946Z,1017.62
2016-11-15T00:27:11.189Z,1017.61
2016-11-15T00:28:10.930Z,1017.6
2016-11-15T00:29:11.668Z,1017.6
2016-11-15T00:30:11.190Z,1017.56
2016-11-15T00:31:11.670Z,1017.62
2016-11-15T00:32:11.796Z,1017.54
2016-11-15T00:33:11.075Z,1017.55
2016-11-15T00:34:11.559Z,1017.51
2016-11-15T00:35:11.186Z,1017.48
2016-11-15T00:36:11.658Z,1017.56
2016-11-15T00:37:11.675Z,1017.52
2016-11-15T00:38:11.077Z,1017.52
2016-11-15T00:39:12.637Z,1017.51
2016-11-15T00:40:11.798Z,1017.5
2016-11-15T00:41:11.796Z,1017.49
2016-11-15T00:42:12.634Z,1017.52
2016-11-15T00:43:11.559Z,1017.53
2016-11-15T00:44:11.669Z,1017.56
2016-11-15T00:45:11.318Z,1017.57
2016-11-15T00:46:12.261Z,1017.55
2016-11-15T00:47:11.317Z,1017.55
2016-11-15T00:48:12.523Z,1017.58
2016-11-15T00:49:12.158Z,1017.59
2016-11-15T00:50:11.556Z,1017.5
2016-11-15T00:51:11.320Z,1017.49
2016-11-15T00:52:11.637Z,1017.49
2016-11-15T00:53:12.640Z,1017.46
2016-11-15T00:54:11.925Z,1017.49
2016-11-15T00:55:11.564Z,1017.48
2016-11-15T00:56:11.287Z,1017.5
2016-11-15T00:57:11.553Z,1017.49
2016-11-15T00:58:11.685Z,1017.48
2016-11-15T00:59:11.659Z,1017.44
2016-11-15T01:00:11.446Z,1017.45
2016-11-15T01:01:11.325Z,1017.44
2016-11-15T01:02:11.805Z,1017.36
2016-11-15T01:03:11.568Z,1017.35
2016-11-15T01:04:11.661Z,1017.35
2016-11-15T01:05:11.328Z,1017.29
2016-11-15T01:06:11.660Z,1017.32
2016-11-15T01:07:11.663Z,1017.28
2016-11-15T01:08:11.645Z,1017.23
2016-11-15T01:09:11.689Z,1017.24
2016-11-15T01:10:11.681Z,1017.22
2016-11-15T01:11:11.568Z,1017.19
2016-11-15T01:12:11.563Z,1017.2
2016-11-15T01:13:11.570Z,1017.18
2016-11-15T01:14:11.574Z,1017.24
2016-11-15T01:15:11.685Z,1017.21
2016-11-15T01:16:11.686Z,1017.26
2016-11-15T01:17:11.579Z,1017.27
2016-11-15T01:18:11.663Z,1017.29
2016-11-15T01:19:11.804Z,1017.26
2016-11-15T01:20:11.908Z,1017.27
2016-11-15T01:21:11.566Z,1017.28
2016-11-15T01:22:12.055Z,1017.28
2016-11-15T01:23:11.696Z,1017.27
2016-11-15T01:24:11.689Z,1017.23
2016-11-15T01:25:11.696Z,1017.26
2016-11-15T01:26:11.668Z,1017.27
2016-11-15T01:27:11.815Z,1017.23
2016-11-15T01:28:11.701Z,1017.23
2016-11-15T01:29:11.808Z,1017.18
2016-11-15T01:30:11.813Z,1017.16
2016-11-15T01:31:11.803Z,1017.17
2016-11-15T01:32:11.934Z,1017.13
2016-11-15T01:33:11.923Z,1017.12
2016-11-15T01:34:11.806Z,1017.13
2016-11-15T01:35:11.924Z,1017.1
2016-11-15T01:36:11.797Z,1017.1
2016-11-15T01:37:11.810Z,1017.04
2016-11-15T01:38:11.827Z,1017.03
2016-11-15T01:39:11.946Z,1016.99
2016-11-15T01:40:11.929Z,1017.02
2016-11-15T01:41:11.930Z,1017.04
2016-11-15T01:42:12.183Z,1017.07
2016-11-15T01:43:11.942Z,1017.03
2016-11-15T01:44:11.932Z,1017.01
2016-11-15T01:45:12.645Z,1017.04
2016-11-15T01:46:11.915Z,1017.05
2016-11-15T01:47:11.830Z,1017.06
2016-11-15T01:48:11.939Z,1017.04
2016-11-15T01:49:11.934Z,1017.04
2016-11-15T01:50:11.930Z,1017.02
2016-11-15T01:51:11.937Z,1017.02
2016-11-15T01:52:11.949Z,1016.97
2016-11-15T01:53:11.929Z,1016.99
2016-11-15T01:54:11.934Z,1016.98
2016-11-15T01:55:11.953Z,1016.95
2016-11-15T01:56:12.042Z,1016.94
2016-11-15T01:57:12.067Z,1016.95
2016-11-15T01:58:12.052Z,1016.92
2016-11-15T01:59:11.956Z,1016.97
2016-11-15T02:00:11.962Z,1016.93
2016-11-15T02:01:12.055Z,1016.93
2016-11-15T02:02:12.066Z,1016.92
2016-11-15T02:03:12.078Z,1016.9
2016-11-15T02:04:12.051Z,1016.83
2016-11-15T02:05:12.058Z,1016.86
2016-11-15T02:06:12.175Z,1016.86
2016-11-15T02:07:12.074Z,1016.83
2016-11-15T02:08:12.171Z,1016.83
2016-11-15T02:09:12.083Z,1016.79
2016-11-15T02:10:12.081Z,1016.75
2016-11-15T02:11:12.170Z,1016.77
2016-11-15T02:12:12.175Z,1016.69
2016-11-15T02:13:12.182Z,1016.73
2016-11-15T02:14:12.179Z,1016.7
2016-11-15T02:15:12.562Z,1016.65
2016-11-15T02:16:12.206Z,1016.64
2016-11-15T02:17:12.297Z,1016.65
2016-11-15T02:18:12.206Z,1016.68
2016-11-15T02:19:12.301Z,1016.63
2016-11-15T02:20:12.309Z,1016.63
2016-11-15T02:21:12.208Z,1016.62
2016-11-15T02:22:12.329Z,1016.58
2016-11-15T02:23:12.333Z,1016.61
2016-11-15T02:24:12.335Z,1016.53
2016-11-15T02:25:12.322Z,1016.56
2016-11-15T02:26:12.539Z,1016.52
2016-11-15T02:27:12.423Z,1016.54
2016-11-15T02:28:12.339Z,1016.57
2016-11-15T02:29:12.430Z,1016.57
2016-11-15T02:30:12.446Z,1016.53
2016-11-15T02:31:12.334Z,1016.56
2016-11-15T02:32:12.541Z,1016.52
2016-11-15T02:33:12.558Z,1016.51
2016-11-15T02:34:12.546Z,1016.53
2016-11-15T02:35:12.546Z,1016.49
2016-11-15T02:36:12.541Z,1016.48
2016-11-15T02:37:12.565Z,1016.47
2016-11-15T02:38:12.577Z,1016.48
2016-11-15T02:39:12.575Z,1016.44
2016-11-15T02:40:12.572Z,1016.49
2016-11-15T02:41:12.660Z,1016.45
2016-11-15T02:42:12.666Z,1016.44
2016-11-15T02:43:12.586Z,1016.44
2016-11-15T02:44:12.668Z,1016.4
2016-11-15T02:45:12.666Z,1016.38
2016-11-15T02:46:12.688Z,1016.39
2016-11-15T02:47:12.699Z,1016.35
2016-11-15T02:48:12.584Z,1016.36
2016-11-15T02:49:12.676Z,1016.34
2016-11-15T02:50:12.667Z,1016.35
2016-11-15T02:51:12.667Z,1016.34
2016-11-15T02:52:12.916Z,1016.32
2016-11-15T02:53:12.796Z,1016.33
2016-11-15T02:54:12.824Z,1016.32
2016-11-15T02:55:12.790Z,1016.3
2016-11-15T02:56:12.712Z,1016.27
2016-11-15T02:57:12.798Z,1016.26
2016-11-15T02:58:12.806Z,1016.28
2016-11-15T02:59:12.800Z,1016.27
2016-11-15T03:00:12.807Z,1016.28
2016-11-15T03:01:13.041Z,1016.25
2016-11-15T03:02:12.942Z,1016.29
2016-11-15T03:03:12.923Z,1016.27
2016-11-15T03:04:12.910Z,1016.29
2016-11-15T03:05:12.958Z,1016.25
2016-11-15T03:06:12.957Z,1016.2
2016-11-15T03:07:12.910Z,1016.22
2016-11-15T03:08:12.952Z,1016.19
2016-11-15T03:09:12.843Z,1016.13
2016-11-15T03:10:12.916Z,1016.11
2016-11-15T03:11:13.041Z,1016.18
2016-11-15T03:12:13.077Z,1016.12
2016-11-15T03:13:12.959Z,1016.15
2016-11-15T03:14:12.966Z,1016.21
2016-11-15T03:15:13.052Z,1016.18
2016-11-15T03:16:12.965Z,1016.2
2016-11-15T03:17:12.959Z,1016.19
2016-11-15T03:18:12.959Z,1016.19
2016-11-15T03:19:13.180Z,1016.15
2016-11-15T03:20:13.088Z,1016.15
2016-11-15T03:21:13.157Z,1016.18
2016-11-15T03:22:13.155Z,1016.12
2016-11-15T03:23:13.086Z,1016.18
2016-11-15T03:24:13.088Z,1016.18
2016-11-15T03:25:13.161Z,1016.16
2016-11-15T03:26:13.154Z,1016.16
2016-11-15T03:27:13.167Z,1016.21
2016-11-15T03:28:13.160Z,1016.17
2016-11-15T03:29:13.166Z,1016.16
2016-11-15T03:30:13.087Z,1016.12
2016-11-15T03:31:13.190Z,1016.15
2016-11-15T03:32:13.281Z,1016.14
2016-11-15T03:33:13.216Z,1016.14
2016-11-15T03:34:13.209Z,1016.14
2016-11-15T03:35:13.331Z,1016.11
2016-11-15T03:36:13.532Z,1016.16
2016-11-15T03:37:13.453Z,1016.13
2016-11-15T03:38:13.656Z,1016.15
2016-11-15T03:39:13.328Z,1016.11
2016-11-15T03:40:13.576Z,1016.1
2016-11-15T03:41:13.434Z,1016.13
2016-11-15T03:42:13.406Z,1016.09
2016-11-15T03:43:13.546Z,1016.08
2016-11-15T03:44:13.430Z,1016.06
2016-11-15T03:45:13.448Z,1016.02
2016-11-15T03:46:13.568Z,1016.03
2016-11-15T03:47:13.444Z,1016.05
2016-11-15T03:48:13.841Z,1016.02
2016-11-15T03:49:13.542Z,1016.01
2016-11-15T03:50:13.895Z,1015.98
2016-11-15T03:51:13.784Z,1016
2016-11-15T03:52:13.899Z,1016
2016-11-15T03:53:13.888Z,1015.97
2016-11-15T03:54:13.696Z,1015.98
2016-11-15T03:55:13.575Z,1015.96
2016-11-15T03:56:13.669Z,1015.91
2016-11-15T03:57:13.694Z,1015.91
2016-11-15T03:58:14.027Z,1015.84
2016-11-15T03:59:13.704Z,1015.86
2016-11-15T04:00:13.824Z,1015.87
2016-11-15T04:01:13.802Z,1015.79
2016-11-15T04:02:13.819Z,1015.85
2016-11-15T04:03:13.701Z,1015.83
2016-11-15T04:04:13.779Z,1015.86
2016-11-15T04:05:13.826Z,1015.81
2016-11-15T04:06:13.581Z,1015.78
2016-11-15T04:07:13.820Z,1015.8
2016-11-15T04:08:13.780Z,1015.76
2016-11-15T04:09:13.926Z,1015.76
2016-11-15T04:10:14.067Z,1015.74
2016-11-15T04:11:13.821Z,1015.75
2016-11-15T04:12:14.266Z,1015.76
2016-11-15T04:13:13.902Z,1015.72
2016-11-15T04:14:13.939Z,1015.76
2016-11-15T04:15:13.941Z,1015.74
2016-11-15T04:16:13.904Z,1015.74
2016-11-15T04:17:13.822Z,1015.78
2016-11-15T04:18:14.288Z,1015.77
2016-11-15T04:19:14.176Z,1015.77
2016-11-15T04:20:14.177Z,1015.74
2016-11-15T04:21:13.927Z,1015.79
2016-11-15T04:22:14.062Z,1015.74
2016-11-15T04:23:14.152Z,1015.75
2016-11-15T04:24:14.063Z,1015.72
2016-11-15T04:25:14.064Z,1015.72
2016-11-15T04:26:14.045Z,1015.71
2016-11-15T04:27:14.415Z,1015.75
2016-11-15T04:28:14.167Z,1015.72
2016-11-15T04:29:14.312Z,1015.71
2016-11-15T04:30:14.071Z,1015.67
2016-11-15T04:31:14.060Z,1015.7
2016-11-15T04:32:14.433Z,1015.74
2016-11-15T04:33:14.538Z,1015.67
2016-11-15T04:34:14.068Z,1015.69
2016-11-15T04:35:14.058Z,1015.65
2016-11-15T04:36:14.195Z,1015.67
2016-11-15T04:37:14.071Z,1015.66
2016-11-15T04:38:14.321Z,1015.63
2016-11-15T04:39:14.077Z,1015.62
2016-11-15T04:40:14.323Z,1015.61
2016-11-15T04:41:14.081Z,1015.64
2016-11-15T04:42:14.196Z,1015.55
2016-11-15T04:43:14.277Z,1015.53
2016-11-15T04:44:14.417Z,1015.49
2016-11-15T04:45:14.187Z,1015.51
2016-11-15T04:46:14.199Z,1015.49
2016-11-15T04:47:14.648Z,1015.49
2016-11-15T04:48:14.442Z,1015.45
2016-11-15T04:49:14.301Z,1015.44
2016-11-15T04:50:14.325Z,1015.47
2016-11-15T04:51:14.444Z,1015.43
2016-11-15T04:52:14.334Z,1015.43
2016-11-15T04:53:14.428Z,1015.44
2016-11-15T04:54:14.445Z,1015.36
2016-11-15T04:55:14.302Z,1015.38
2016-11-15T04:56:14.328Z,1015.36
2016-11-15T04:57:14.324Z,1015.36
2016-11-15T04:58:14.449Z,1015.38
2016-11-15T04:59:14.425Z,1015.35
2016-11-15T05:00:14.572Z,1015.4
2016-11-15T05:01:14.445Z,1015.3
2016-11-15T05:02:14.451Z,1015.33
2016-11-15T05:03:14.689Z,1015.27
2016-11-15T05:04:14.436Z,1015.27
2016-11-15T05:05:14.683Z,1015.26
2016-11-15T05:06:14.331Z,1015.28
2016-11-15T05:07:14.432Z,1015.25
2016-11-15T05:08:14.537Z,1015.25
2016-11-15T05:09:14.574Z,1015.26
2016-11-15T05:10:14.683Z,1015.22
2016-11-15T05:11:14.682Z,1015.2
2016-11-15T05:12:14.683Z,1015.2
2016-11-15T05:13:14.685Z,1015.19
2016-11-15T05:14:14.453Z,1015.18
2016-11-15T05:15:14.582Z,1015.19
2016-11-15T05:16:14.799Z,1015.14
2016-11-15T05:17:14.680Z,1015.14
2016-11-15T05:18:14.665Z,1015.14
2016-11-15T05:19:14.701Z,1015.11
2016-11-15T05:20:14.688Z,1015.12
2016-11-15T05:21:14.824Z,1015.07
2016-11-15T05:22:14.787Z,1015.11
2016-11-15T05:23:14.818Z,1015.05
2016-11-15T05:24:14.823Z,1015.08
2016-11-15T05:25:14.824Z,1015.07
2016-11-15T05:26:14.702Z,1015.05
2016-11-15T05:27:14.683Z,1015.04
2016-11-15T05:28:14.783Z,1015.03
2016-11-15T05:29:14.944Z,1015.06
2016-11-15T05:30:14.806Z,1015.03
2016-11-15T05:31:14.937Z,1015.06
2016-11-15T05:32:14.811Z,1015.04
2016-11-15T05:33:14.827Z,1015.05
2016-11-15T05:34:14.930Z,1015.03
2016-11-15T05:35:14.938Z,1015.07
2016-11-15T05:36:14.827Z,1015.03
2016-11-15T05:37:14.793Z,1014.96
2016-11-15T05:38:14.924Z,1015.03
2016-11-15T05:39:14.935Z,1015.03
2016-11-15T05:40:14.923Z,1015.01
2016-11-15T05:41:15.052Z,1015
2016-11-15T05:42:14.917Z,1014.96
2016-11-15T05:43:15.047Z,1014.95
2016-11-15T05:44:14.922Z,1014.95
2016-11-15T05:45:15.050Z,1014.95
2016-11-15T05:46:15.061Z,1014.95
2016-11-15T05:47:14.925Z,1014.95
2016-11-15T05:48:15.048Z,1014.95
2016-11-15T05:49:14.952Z,1014.96
2016-11-15T05:50:15.174Z,1015.01
2016-11-15T05:51:15.061Z,1014.97
2016-11-15T05:52:15.049Z,1014.97
2016-11-15T05:53:15.171Z,1014.96
2016-11-15T05:54:15.090Z,1014.94
2016-11-15T05:55:14.970Z,1014.94
2016-11-15T05:56:15.161Z,1014.91
2016-11-15T05:57:15.579Z,1014.87
2016-11-15T05:58:15.271Z,1014.81
2016-11-15T05:59:15.185Z,1014.84
2016-11-15T06:00:15.086Z,1014.88
2016-11-15T06:01:15.310Z,1014.88
2016-11-15T06:02:15.203Z,1014.88
2016-11-15T06:03:15.301Z,1014.88
2016-11-15T06:04:15.096Z,1014.9
2016-11-15T06:05:15.644Z,1014.89
2016-11-15T06:06:15.223Z,1014.96
2016-11-15T06:07:15.210Z,1014.94
2016-11-15T06:08:15.427Z,1015
2016-11-15T06:09:15.297Z,1014.98
2016-11-15T06:10:15.327Z,1015.01
2016-11-15T06:11:15.787Z,1015.01
2016-11-15T06:12:15.410Z,1015.01
2016-11-15T06:13:15.339Z,1015.06
2016-11-15T06:14:15.532Z,1015.07
2016-11-15T06:15:15.534Z,1015.1
2016-11-15T06:16:15.304Z,1015.08
2016-11-15T06:17:15.425Z,1015.09
2016-11-15T06:18:15.887Z,1015.04
2016-11-15T06:19:15.533Z,1015
2016-11-15T06:20:15.656Z,1015.02
2016-11-15T06:21:15.462Z,1014.96
2016-11-15T06:22:15.329Z,1014.96
2016-11-15T06:23:15.665Z,1014.96
2016-11-15T06:24:15.335Z,1014.97
2016-11-15T06:25:15.458Z,1014.94
2016-11-15T06:26:15.551Z,1014.94
2016-11-15T06:27:15.666Z,1014.91
2016-11-15T06:28:15.818Z,1014.91
2016-11-15T06:29:15.543Z,1014.92
2016-11-15T06:30:15.578Z,1014.9
2016-11-15T06:31:15.814Z,1014.92
2016-11-15T06:32:15.945Z,1014.92
2016-11-15T06:33:15.939Z,1014.94
2016-11-15T06:34:15.829Z,1014.86
2016-11-15T06:35:15.580Z,1014.94
2016-11-15T06:36:15.702Z,1014.85
2016-11-15T06:37:16.183Z,1014.92
2016-11-15T06:38:15.831Z,1014.9
2016-11-15T06:39:15.705Z,1014.91
2016-11-15T06:40:15.830Z,1014.92
2016-11-15T06:41:15.695Z,1014.89
2016-11-15T06:42:15.810Z,1014.93
2016-11-15T06:43:15.827Z,1014.9
2016-11-15T06:44:16.022Z,1014.86
2016-11-15T06:45:15.951Z,1014.9
2016-11-15T06:46:16.185Z,1014.91
2016-11-15T06:47:15.826Z,1014.93
2016-11-15T06:48:15.935Z,1014.95
2016-11-15T06:49:15.949Z,1014.96
2016-11-15T06:50:15.828Z,1014.95
2016-11-15T06:51:15.827Z,1014.98
2016-11-15T06:52:15.826Z,1014.94
2016-11-15T06:53:16.068Z,1014.94
2016-11-15T06:54:16.914Z,1014.98
2016-11-15T06:55:16.149Z,1014.96
2016-11-15T06:56:15.834Z,1014.93
2016-11-15T06:57:16.068Z,1014.99
2016-11-15T06:58:16.061Z,1014.98
2016-11-15T06:59:15.964Z,1014.96
2016-11-15T07:00:16.067Z,1014.91
2016-11-15T07:01:16.276Z,1014.9
2016-11-15T07:02:15.927Z,1014.9
2016-11-15T07:03:16.087Z,1014.89
2016-11-15T07:04:17.039Z,1014.91
2016-11-15T07:05:16.280Z,1014.9
2016-11-15T07:06:16.028Z,1014.93
2016-11-15T07:07:16.077Z,1014.9
2016-11-15T07:08:16.312Z,1014.93
2016-11-15T07:09:16.160Z,1014.95
2016-11-15T07:10:16.417Z,1014.93
2016-11-15T07:11:17.255Z,1014.97
2016-11-15T07:12:16.071Z,1014.94
2016-11-15T07:13:16.201Z,1014.93
2016-11-15T07:14:16.054Z,1014.94
2016-11-15T07:15:15.943Z,1014.97
2016-11-15T07:16:15.940Z,1014.9
2016-11-15T07:17:15.939Z,1014.9
2016-11-15T07:18:16.038Z,1014.88
2016-11-15T07:19:16.066Z,1014.88
2016-11-15T07:20:16.572Z,1014.89
2016-11-15T07:21:16.162Z,1014.89
2016-11-15T07:22:16.028Z,1014.81
2016-11-15T07:23:16.087Z,1014.89
2016-11-15T07:24:16.173Z,1014.87
2016-11-15T07:25:16.117Z,1014.85
2016-11-15T07:26:16.300Z,1014.87
2016-11-15T07:27:16.189Z,1014.87
2016-11-15T07:28:16.180Z,1014.87
2016-11-15T07:29:16.177Z,1014.83
2016-11-15T07:30:16.179Z,1014.89
2016-11-15T07:31:16.151Z,1014.84
2016-11-15T07:32:16.318Z,1014.88
2016-11-15T07:33:16.285Z,1014.9
2016-11-15T07:34:16.301Z,1014.91
2016-11-15T07:35:16.290Z,1014.93
2016-11-15T07:36:16.276Z,1014.87
2016-11-15T07:37:16.264Z,1014.92
2016-11-15T07:38:16.299Z,1014.93
2016-11-15T07:39:16.316Z,1014.9
2016-11-15T07:40:16.419Z,1014.91
2016-11-15T07:41:16.287Z,1014.93
2016-11-15T07:42:16.279Z,1014.94
2016-11-15T07:43:16.341Z,1014.95
2016-11-15T07:44:16.320Z,1014.93
2016-11-15T07:45:16.371Z,1014.93
2016-11-15T07:46:16.334Z,1014.92
2016-11-15T07:47:16.324Z,1014.94
2016-11-15T07:48:16.396Z,1014.95
2016-11-15T07:49:16.799Z,1014.94
2016-11-15T07:50:16.470Z,1014.96
2016-11-15T07:51:16.385Z,1014.96
2016-11-15T07:52:16.415Z,1014.9
2016-11-15T07:53:16.447Z,1014.88
2016-11-15T07:54:16.520Z,1014.84
2016-11-15T07:55:16.430Z,1014.85
2016-11-15T07:56:16.460Z,1014.81
2016-11-15T07:57:16.648Z,1014.79
2016-11-15T07:58:16.503Z,1014.85
2016-11-15T07:59:16.557Z,1014.78
2016-11-15T08:00:16.642Z,1014.74
2016-11-15T08:01:16.665Z,1014.76
2016-11-15T08:02:16.743Z,1014.8
2016-11-15T08:03:16.880Z,1014.76
2016-11-15T08:04:16.720Z,1014.76
2016-11-15T08:05:16.865Z,1014.76
2016-11-15T08:06:16.765Z,1014.77
2016-11-15T08:07:16.729Z,1014.78
2016-11-15T08:08:16.783Z,1014.74
2016-11-15T08:09:16.911Z,1014.78
2016-11-15T08:10:16.906Z,1014.72
2016-11-15T08:11:17.040Z,1014.74
2016-11-15T08:12:16.876Z,1014.7
2016-11-15T08:13:16.915Z,1014.7
2016-11-15T08:14:16.796Z,1014.7
2016-11-15T08:15:16.798Z,1014.67
2016-11-15T08:16:16.721Z,1014.67
2016-11-15T08:17:16.991Z,1014.63
2016-11-15T08:18:17.149Z,1014.63
2016-11-15T08:19:16.895Z,1014.63
2016-11-15T08:20:16.947Z,1014.66
2016-11-15T08:21:16.900Z,1014.69
2016-11-15T08:22:16.922Z,1014.69
2016-11-15T08:23:16.920Z,1014.72
2016-11-15T08:24:16.914Z,1014.64
2016-11-15T08:25:16.888Z,1014.6
2016-11-15T08:26:16.923Z,1014.63
2016-11-15T08:27:16.933Z,1014.6
2016-11-15T08:28:16.921Z,1014.64
2016-11-15T08:29:16.894Z,1014.65
2016-11-15T08:30:17.052Z,1014.67
2016-11-15T08:31:17.009Z,1014.65
2016-11-15T08:32:17.056Z,1014.69
2016-11-15T08:33:17.036Z,1014.71
2016-11-15T08:34:17.033Z,1014.67
2016-11-15T08:35:17.086Z,1014.65
2016-11-15T08:36:17.157Z,1014.73
2016-11-15T08:37:17.026Z,1014.7
2016-11-15T08:38:17.027Z,1014.68
2016-11-15T08:39:17.012Z,1014.72
2016-11-15T08:40:16.962Z,1014.73
2016-11-15T08:41:17.145Z,1014.73
2016-11-15T08:42:16.996Z,1014.69
2016-11-15T08:43:17.124Z,1014.7
2016-11-15T08:44:17.166Z,1014.72
2016-11-15T08:45:17.090Z,1014.75
2016-11-15T08:46:17.165Z,1014.71
2016-11-15T08:47:17.180Z,1014.71
2016-11-15T08:48:17.157Z,1014.76
2016-11-15T08:49:17.148Z,1014.71
2016-11-15T08:50:17.161Z,1014.73
2016-11-15T08:51:17.280Z,1014.71
2016-11-15T08:52:17.292Z,1014.74
2016-11-15T08:53:17.238Z,1014.68
2016-11-15T08:54:17.364Z,1014.7
2016-11-15T08:55:17.267Z,1014.68
2016-11-15T08:56:17.407Z,1014.68
2016-11-15T08:57:17.314Z,1014.76
2016-11-15T08:58:17.338Z,1014.66
2016-11-15T08:59:17.367Z,1014.66
2016-11-15T09:00:17.369Z,1014.55
2016-11-15T09:01:17.337Z,1014.56
2016-11-15T09:02:17.413Z,1014.59
2016-11-15T09:03:17.387Z,1014.6
2016-11-15T09:04:17.398Z,1014.63
2016-11-15T09:05:17.328Z,1014.65
2016-11-15T09:06:17.313Z,1014.67
2016-11-15T09:07:17.392Z,1014.65
2016-11-15T09:08:17.431Z,1014.67
2016-11-15T09:09:17.377Z,1014.65
2016-11-15T09:10:17.363Z,1014.61
2016-11-15T09:11:17.401Z,1014.62
2016-11-15T09:12:17.401Z,1014.63
2016-11-15T09:13:17.508Z,1014.65
2016-11-15T09:14:17.574Z,1014.64
2016-11-15T09:15:17.565Z,1014.68
2016-11-15T09:16:17.615Z,1014.69
2016-11-15T09:17:17.566Z,1014.64
2016-11-15T09:18:17.587Z,1014.71
2016-11-15T09:19:17.721Z,1014.66
2016-11-15T09:20:17.615Z,1014.68
2016-11-15T09:21:17.528Z,1014.68
2016-11-15T09:22:17.533Z,1014.71
2016-11-15T09:23:17.777Z,1014.72
2016-11-15T09:24:17.612Z,1014.7
2016-11-15T09:25:17.669Z,1014.73
2016-11-15T09:26:17.593Z,1014.7
2016-11-15T09:27:17.597Z,1014.63
2016-11-15T09:28:17.616Z,1014.65
2016-11-15T09:29:17.655Z,1014.63
2016-11-15T09:30:17.675Z,1014.61
2016-11-15T09:31:17.653Z,1014.58
2016-11-15T09:32:17.749Z,1014.55
2016-11-15T09:33:17.887Z,1014.57
2016-11-15T09:34:17.716Z,1014.58
2016-11-15T09:35:17.979Z,1014.63
2016-11-15T09:36:17.851Z,1014.69
2016-11-15T09:37:17.792Z,1014.66
2016-11-15T09:38:17.975Z,1014.66
2016-11-15T09:39:17.771Z,1014.68
2016-11-15T09:40:17.770Z,1014.67
2016-11-15T09:41:17.748Z,1014.66
2016-11-15T09:42:17.776Z,1014.68
2016-11-15T09:43:17.996Z,1014.61
2016-11-15T09:44:17.992Z,1014.62
2016-11-15T09:45:17.969Z,1014.63
2016-11-15T09:46:17.853Z,1014.57
2016-11-15T09:47:17.911Z,1014.61
2016-11-15T09:48:18.077Z,1014.64
2016-11-15T09:49:17.900Z,1014.58
2016-11-15T09:50:17.883Z,1014.65
2016-11-15T09:51:17.951Z,1014.61
2016-11-15T09:52:17.962Z,1014.66
2016-11-15T09:53:18.132Z,1014.66
2016-11-15T09:54:17.939Z,1014.67
2016-11-15T09:55:17.926Z,1014.67
2016-11-15T09:56:17.969Z,1014.68
2016-11-15T09:57:17.988Z,1014.66
2016-11-15T09:58:18.209Z,1014.66
2016-11-15T09:59:18.132Z,1014.65
2016-11-15T10:00:18.001Z,1014.62
2016-11-15T10:01:18.119Z,1014.62
2016-11-15T10:02:18.106Z,1014.59
2016-11-15T10:03:18.320Z,1014.59
2016-11-15T10:04:18.343Z,1014.59
2016-11-15T10:05:18.338Z,1014.51
2016-11-15T10:06:18.149Z,1014.52
2016-11-15T10:07:18.111Z,1014.51
2016-11-15T10:08:18.130Z,1014.5
2016-11-15T10:09:18.119Z,1014.48
2016-11-15T10:10:18.234Z,1014.44
2016-11-15T10:11:18.176Z,1014.43
2016-11-15T10:12:18.205Z,1014.43
2016-11-15T10:13:18.207Z,1014.39
2016-11-15T10:14:18.369Z,1014.42
2016-11-15T10:15:18.258Z,1014.42
2016-11-15T10:16:18.326Z,1014.4
2016-11-15T10:17:18.332Z,1014.37
2016-11-15T10:18:18.346Z,1014.41
2016-11-15T10:19:18.293Z,1014.4
2016-11-15T10:20:18.470Z,1014.44
2016-11-15T10:21:18.319Z,1014.4
2016-11-15T10:22:18.432Z,1014.42
2016-11-15T10:23:18.330Z,1014.4
2016-11-15T10:24:18.483Z,1014.36
2016-11-15T10:25:18.445Z,1014.37
2016-11-15T10:26:18.545Z,1014.35
2016-11-15T10:27:18.381Z,1014.34
2016-11-15T10:28:18.406Z,1014.3
2016-11-15T10:29:18.499Z,1014.34
2016-11-15T10:30:18.617Z,1014.33
2016-11-15T10:31:18.462Z,1014.32
2016-11-15T10:32:18.460Z,1014.34
2016-11-15T10:33:18.574Z,1014.36
2016-11-15T10:34:18.515Z,1014.4
2016-11-15T10:35:18.527Z,1014.36
2016-11-15T10:36:18.524Z,1014.32
2016-11-15T10:37:18.574Z,1014.34
2016-11-15T10:38:18.533Z,1014.39
2016-11-15T10:39:18.665Z,1014.35
2016-11-15T10:40:18.610Z,1014.37
2016-11-15T10:41:18.650Z,1014.33
2016-11-15T10:42:18.638Z,1014.28
2016-11-15T10:43:18.687Z,1014.26
2016-11-15T10:44:18.709Z,1014.22
2016-11-15T10:45:18.667Z,1014.2
2016-11-15T10:46:18.721Z,1014.15
2016-11-15T10:47:18.844Z,1014.18
2016-11-15T10:48:18.701Z,1014.2
2016-11-15T10:49:18.740Z,1014.13
2016-11-15T10:50:18.761Z,1014.09
2016-11-15T10:51:18.792Z,1014.05
2016-11-15T10:52:18.831Z,1014
2016-11-15T10:53:18.763Z,1013.99
2016-11-15T10:54:18.814Z,1013.97
2016-11-15T10:55:18.754Z,1013.97
2016-11-15T10:56:18.933Z,1014
2016-11-15T10:57:18.783Z,1014.01
2016-11-15T10:58:18.845Z,1013.97
2016-11-15T10:59:18.771Z,1013.93
2016-11-15T11:00:18.948Z,1013.92
2016-11-15T11:01:18.856Z,1013.91
2016-11-15T11:02:18.832Z,1013.82
2016-11-15T11:03:19.035Z,1013.84
2016-11-15T11:04:18.929Z,1013.87
2016-11-15T11:05:19.049Z,1013.86
2016-11-15T11:06:18.945Z,1013.79
2016-11-15T11:07:19.022Z,1013.84
2016-11-15T11:08:19.082Z,1013.85
2016-11-15T11:09:19.351Z,1013.81
2016-11-15T11:10:19.022Z,1013.82
2016-11-15T11:11:19.078Z,1013.8
2016-11-15T11:12:19.214Z,1013.86
2016-11-15T11:13:19.073Z,1013.84
2016-11-15T11:14:19.082Z,1013.84
2016-11-15T11:15:19.015Z,1013.81
2016-11-15T11:16:19.046Z,1013.73
2016-11-15T11:17:19.102Z,1013.68
2016-11-15T11:18:19.057Z,1013.74
2016-11-15T11:19:19.364Z,1013.78
2016-11-15T11:20:19.101Z,1013.84
2016-11-15T11:21:19.087Z,1013.81
2016-11-15T11:22:19.090Z,1013.78
2016-11-15T11:23:19.089Z,1013.76
2016-11-15T11:24:19.224Z,1013.72
2016-11-15T11:25:19.181Z,1013.69
2016-11-15T11:26:19.216Z,1013.68
2016-11-15T11:27:19.226Z,1013.65
2016-11-15T11:28:19.284Z,1013.6
2016-11-15T11:29:19.246Z,1013.64
2016-11-15T11:30:19.330Z,1013.64
2016-11-15T11:31:19.334Z,1013.66
2016-11-15T11:32:19.362Z,1013.66
2016-11-15T11:33:19.298Z,1013.68
2016-11-15T11:34:19.312Z,1013.59
2016-11-15T11:35:19.557Z,1013.6
2016-11-15T11:36:19.341Z,1013.56
2016-11-15T11:37:19.301Z,1013.57
2016-11-15T11:38:19.332Z,1013.62
2016-11-15T11:39:19.308Z,1013.65
2016-11-15T11:40:19.397Z,1013.6
2016-11-15T11:41:19.333Z,1013.57
2016-11-15T11:42:19.637Z,1013.58
2016-11-15T11:43:19.424Z,1013.61
2016-11-15T11:44:19.407Z,1013.64
2016-11-15T11:45:19.520Z,1013.59
2016-11-15T11:46:19.392Z,1013.56
2016-11-15T11:47:19.403Z,1013.59
2016-11-15T11:48:19.584Z,1013.6
2016-11-15T11:49:19.638Z,1013.56
2016-11-15T11:50:19.584Z,1013.53
2016-11-15T11:51:19.577Z,1013.49
2016-11-15T11:52:19.549Z,1013.51
2016-11-15T11:53:19.610Z,1013.5
2016-11-15T11:54:19.630Z,1013.46
2016-11-15T11:55:19.774Z,1013.47
2016-11-15T11:56:19.629Z,1013.4
2016-11-15T11:57:19.649Z,1013.48
2016-11-15T11:58:19.638Z,1013.49
2016-11-15T11:59:19.573Z,1013.43
2016-11-15T12:00:19.569Z,1013.44
2016-11-15T12:01:19.680Z,1013.46
2016-11-15T12:02:20.044Z,1013.47
2016-11-15T12:03:19.909Z,1013.39
2016-11-15T12:04:19.768Z,1013.4
2016-11-15T12:05:19.807Z,1013.41
2016-11-15T12:06:19.992Z,1013.44
2016-11-15T12:07:19.809Z,1013.47
2016-11-15T12:08:19.976Z,1013.5